Aviation Digital Data Service (ADDS)

Output produced by METARs form (1113 UTC 04 March 2015)
found at http://aviationweather.gov/adds/metars/
 
KILG 040908Z 0409/0506 22006KT 4SM BR BKN012 OVC060 
     TEMPO 0409/0412 2SM -RADZ SCT012 OVC060 
     FM041200 23006KT 2SM -RADZ BR OVC010 
     FM041400 27004KT 4SM -SHRA BR OVC008 
     FM042200 31006KT 4SM -RA BR OVC005 
     FM050500 32008KT 2SM -PL BR OVC005